Time;durP1;ratioP1;P1;durP2;ratioP2;P2;SDS_P1;SDS_P2;PMS_P1;PMS_P2;Temp;Humidity;BMP_temperature;BMP_pressure;BME280_temperature;BME280_humidity;BME280_pressure;Samples;Min_cycle;Max_cycle;Signal;HPM_P1;HPM_P2
2023/03/01 00:01:16;;;;;;;28.33;14.20;;;-2.60;99.90;;;;;;4822630;29;20141;-81
2023/03/01 00:06:18;;;;;;;28.13;16.30;;;-2.70;99.90;;;;;;4967993;24;20086;-81
2023/03/01 00:08:44;;;;;;;30.47;15.27;;;-2.70;99.90;;;;;;4843705;29;20056;-81
2023/03/01 00:11:15;;;;;;;29.97;16.60;;;-2.60;99.90;;;;;;4854196;29;20061;-81
2023/03/01 00:13:41;;;;;;;30.37;16.17;;;-2.60;99.90;;;;;;4860207;29;20049;-81
2023/03/01 00:16:10;;;;;;;28.13;15.13;;;-2.70;99.90;;;;;;4843718;29;20045;-82
2023/03/01 00:18:36;;;;;;;30.17;16.40;;;-2.70;99.90;;;;;;4847188;29;20072;-81
2023/03/01 00:21:01;;;;;;;32.57;15.73;;;-2.70;99.90;;;;;;4843612;29;20076;-81
2023/03/01 00:23:27;;;;;;;32.30;17.00;;;-2.70;99.90;;;;;;4860317;29;20092;-81
2023/03/01 00:25:54;;;;;;;28.70;16.50;;;-2.70;99.90;;;;;;4843078;29;20053;-81
2023/03/01 00:28:22;;;;;;;31.33;16.07;;;-2.70;99.90;;;;;;4860139;29;20049;-81
2023/03/01 00:30:48;;;;;;;31.73;16.53;;;-2.70;99.90;;;;;;4843320;29;20054;-81
2023/03/01 00:33:14;;;;;;;31.37;17.87;;;-2.70;99.90;;;;;;4842970;29;20057;-81
2023/03/01 00:35:39;;;;;;;35.73;18.30;;;-2.70;99.90;;;;;;4843618;29;20056;-81
2023/03/01 00:38:05;;;;;;;32.63;17.53;;;-2.70;99.90;;;;;;4859964;29;20061;-81
2023/03/01 00:40:33;;;;;;;34.03;18.90;;;-2.70;99.90;;;;;;4842143;29;20060;-82
2023/03/01 00:42:59;;;;;;;37.90;20.83;;;-2.70;99.90;;;;;;4860278;29;20050;-81
2023/03/01 00:45:25;;;;;;;34.23;18.00;;;-2.70;99.90;;;;;;4842513;29;20124;-81
2023/03/01 00:47:51;;;;;;;35.20;18.33;;;-2.70;99.90;;;;;;4843053;29;20522;-81
2023/03/01 00:50:18;;;;;;;35.93;20.13;;;-2.80;99.90;;;;;;4860133;29;20037;-81
2023/03/01 00:52:44;;;;;;;37.47;20.20;;;-2.80;99.90;;;;;;4859628;29;20626;-81
2023/03/01 00:55:26;;;;;;;37.33;20.00;;;-2.70;99.90;;;;;;4870119;23;20048;-81
2023/03/01 00:57:55;;;;;;;36.80;19.73;;;-1.80;99.90;;;;;;4813186;29;20462;-81
2023/03/01 01:00:21;;;;;;;38.10;20.23;;;-1.50;99.90;;;;;;4839498;29;20045;-81
2023/03/01 01:02:47;;;;;;;36.83;19.50;;;-2.80;99.90;;;;;;4828174;24;20582;-81
2023/03/01 01:05:13;;;;;;;39.73;20.80;;;-3.00;99.90;;;;;;4845084;29;20077;-81
2023/03/01 01:07:39;;;;;;;37.10;20.50;;;-2.90;99.90;;;;;;4861865;29;20085;-82
2023/03/01 01:10:06;;;;;;;38.33;20.37;;;-2.80;99.90;;;;;;4846050;29;20076;-81
2023/03/01 01:12:32;;;;;;;36.17;18.67;;;-2.80;99.90;;;;;;4846635;29;20057;-81
2023/03/01 01:14:58;;;;;;;36.97;20.00;;;-2.80;99.90;;;;;;4845921;29;20486;-81
2023/03/01 01:17:24;;;;;;;37.90;20.03;;;-2.80;99.90;;;;;;4846295;29;20045;-81
2023/03/01 01:19:49;;;;;;;36.60;19.97;;;-2.80;99.90;;;;;;4846665;29;20049;-81
2023/03/01 01:22:15;;;;;;;35.93;19.27;;;-2.80;99.90;;;;;;4862840;29;20447;-81
2023/03/01 01:24:41;;;;;;;36.00;18.80;;;-2.90;99.90;;;;;;4920574;24;20062;-81
2023/03/01 01:27:07;;;;;;;35.20;18.80;;;-2.90;99.90;;;;;;4828223;29;20042;-81
2023/03/01 01:29:33;;;;;;;36.77;19.00;;;-3.00;99.90;;;;;;4843982;29;20551;-81
2023/03/01 01:31:58;;;;;;;37.03;18.63;;;-3.00;99.90;;;;;;4844844;29;20053;-81
2023/03/01 01:34:24;;;;;;;34.77;18.70;;;-3.10;99.90;;;;;;4844601;29;20402;-81
2023/03/01 01:36:53;;;;;;;33.47;18.53;;;-3.10;99.90;;;;;;4827771;29;20054;-81
2023/03/01 01:39:22;;;;;;;39.07;20.07;;;-3.10;99.90;;;;;;4830015;29;20056;-81
2023/03/01 01:41:48;;;;;;;36.10;19.37;;;-3.10;99.90;;;;;;4827434;29;20065;-81
2023/03/01 01:44:25;;;;;;;36.30;19.77;;;-3.10;99.90;;;;;;4845014;29;20124;-82
2023/03/01 01:47:03;;;;;;;38.30;20.60;;;-3.10;99.90;;;;;;4827757;29;20522;-81
2023/03/01 01:49:45;;;;;;;37.20;21.23;;;-3.10;99.90;;;;;;4839141;29;20102;-81
2023/03/01 01:52:31;;;;;;;37.20;19.23;;;-3.10;99.90;;;;;;4865690;29;20041;-80
2023/03/01 01:55:00;;;;;;;37.43;19.60;;;-3.10;99.90;;;;;;4839458;29;20418;-81
2023/03/01 01:57:35;;;;;;;36.80;19.60;;;-3.10;99.90;;;;;;4827593;29;20149;-82
2023/03/01 02:00:13;;;;;;;39.60;20.73;;;-1.90;99.90;;;;;;4848062;29;20166;-82
2023/03/01 02:02:42;;;;;;;38.37;20.50;;;-3.10;99.90;;;;;;4832668;29;20419;-81
2023/03/01 02:05:23;;;;;;;38.80;20.40;;;-3.20;99.90;;;;;;4843885;29;20045;-81
2023/03/01 02:07:49;;;;;;;38.63;20.00;;;-3.20;99.90;;;;;;4843858;29;20046;-81
2023/03/01 02:10:15;;;;;;;39.13;19.87;;;-2.20;99.90;;;;;;4843490;29;20502;-81
2023/03/01 02:12:41;;;;;;;39.27;19.67;;;-3.30;99.90;;;;;;4844014;29;20267;-81
2023/03/01 02:15:08;;;;;;;36.50;19.43;;;-3.30;99.90;;;;;;4843379;29;20038;-81
2023/03/01 02:17:35;;;;;;;41.23;20.53;;;-3.30;99.90;;;;;;4843125;29;20046;-82
2023/03/01 02:20:13;;;;;;;38.33;20.83;;;-3.30;99.90;;;;;;4844008;29;20046;-81
2023/03/01 02:22:39;;;;;;;38.70;19.90;;;-3.30;99.90;;;;;;4827155;29;20198;-81
2023/03/01 02:25:18;;;;;;;39.47;19.87;;;-3.30;99.90;;;;;;4826742;29;20054;-81
2023/03/01 02:28:15;;;;;;;36.03;19.13;;;-3.40;99.90;;;;;;4814598;29;20186;-81
2023/03/01 02:33:35;;;;;;;36.57;19.57;;;-3.40;99.90;;;;;;4846990;29;20125;-81
2023/03/01 02:36:04;;;;;;;38.10;20.70;;;-3.50;99.90;;;;;;4839953;29;20057;-82
2023/03/01 02:38:31;;;;;;;35.43;19.80;;;-3.50;99.90;;;;;;4842661;29;20577;-82
2023/03/01 02:41:01;;;;;;;36.83;19.67;;;-3.50;99.90;;;;;;4843763;29;20090;-81
2023/03/01 02:43:32;;;;;;;37.87;19.97;;;-4.20;99.90;;;;;;4843241;29;20046;-81
2023/03/01 02:46:05;;;;;;;38.00;19.87;;;-3.50;99.90;;;;;;4826094;29;20049;-81
2023/03/01 02:51:30;;;;;;;36.40;19.27;;;-3.60;99.90;;;;;;5380994;23;20084;-81
2023/03/01 02:54:20;;;;;;;35.83;19.43;;;-3.60;99.90;;;;;;4824425;29;20050;-82
2023/03/01 02:56:49;;;;;;;35.70;20.23;;;-3.60;99.90;;;;;;4830129;29;20511;-82
2023/03/01 02:59:17;;;;;;;35.13;18.93;;;-3.70;99.90;;;;;;4807552;29;20107;-81
2023/03/01 03:01:43;;;;;;;33.53;19.27;;;-3.60;99.90;;;;;;4820050;29;20064;-82
2023/03/01 03:04:11;;;;;;;37.23;19.53;;;-3.60;99.90;;;;;;4823939;29;20394;-82
2023/03/01 03:06:37;;;;;;;37.57;20.60;;;-3.60;99.90;;;;;;4829567;29;20073;-82
2023/03/01 03:09:04;;;;;;;35.47;19.43;;;-3.60;99.90;;;;;;4825082;29;20148;-82
2023/03/01 03:11:30;;;;;;;36.03;19.43;;;-3.60;99.90;;;;;;4845502;29;20146;-82
2023/03/01 03:13:56;;;;;;;35.23;19.47;;;-3.70;99.90;;;;;;4807871;29;20163;-82
2023/03/01 03:16:21;;;;;;;35.87;19.07;;;-3.70;99.90;;;;;;4813887;29;20403;-82
2023/03/01 03:18:47;;;;;;;35.87;19.53;;;-3.70;99.90;;;;;;4808220;29;20050;-82
2023/03/01 03:21:14;;;;;;;36.13;19.40;;;-3.70;99.90;;;;;;4840532;29;20045;-82
2023/03/01 03:23:40;;;;;;;35.77;18.93;;;-3.70;99.90;;;;;;4811988;29;20050;-81
2023/03/01 03:26:05;;;;;;;34.17;18.57;;;-3.80;99.90;;;;;;4814302;29;20138;-82
2023/03/01 03:28:33;;;;;;;41.37;20.13;;;-3.80;99.90;;;;;;4822903;29;20043;-82
2023/03/01 03:31:03;;;;;;;34.27;18.50;;;-3.80;99.90;;;;;;4819653;29;20038;-82
2023/03/01 03:33:30;;;;;;;34.60;18.83;;;-3.80;99.90;;;;;;4815487;29;20461;-82
2023/03/01 03:35:56;;;;;;;35.37;18.67;;;-3.80;99.90;;;;;;4812903;29;20133;-81
2023/03/01 03:38:22;;;;;;;33.50;18.50;;;-3.80;99.90;;;;;;4808097;29;20049;-81
2023/03/01 03:40:51;;;;;;;36.63;19.47;;;-3.00;99.90;;;;;;4816131;29;20088;-82
2023/03/01 03:43:22;;;;;;;35.47;19.63;;;-3.90;99.90;;;;;;4835664;29;20047;-82
2023/03/01 03:45:50;;;;;;;35.63;18.47;;;-3.80;99.90;;;;;;4812897;29;20081;-82
2023/03/01 03:48:17;;;;;;;33.23;18.83;;;-3.70;99.90;;;;;;4972929;24;20017;-82
2023/03/01 03:50:48;;;;;;;35.53;19.33;;;-4.30;99.90;;;;;;4922446;24;20796;-81
2023/03/01 03:53:14;;;;;;;35.73;18.53;;;-3.90;99.90;;;;;;4837582;29;20126;-82
2023/03/01 03:55:40;;;;;;;36.53;18.87;;;-3.90;99.90;;;;;;4811199;29;20555;-82
2023/03/01 03:58:10;;;;;;;35.73;19.00;;;-3.90;99.90;;;;;;4810871;29;20172;-81
2023/03/01 04:00:38;;;;;;;35.87;19.67;;;-4.00;99.90;;;;;;4810746;29;20107;-82
2023/03/01 04:03:04;;;;;;;37.33;19.80;;;-3.90;99.90;;;;;;4839889;29;20054;-82
2023/03/01 04:05:30;;;;;;;37.60;19.67;;;-4.00;99.90;;;;;;4826042;29;20077;-82
2023/03/01 04:08:03;;;;;;;36.63;18.93;;;-4.00;99.90;;;;;;4813332;29;20499;-82
2023/03/01 04:10:31;;;;;;;33.63;19.43;;;-4.00;99.90;;;;;;4836692;29;20055;-82
2023/03/01 04:12:57;;;;;;;35.03;19.03;;;-4.00;99.90;;;;;;4807519;29;20089;-82
2023/03/01 04:15:24;;;;;;;35.80;19.43;;;-4.00;99.90;;;;;;4824270;29;20042;-82
2023/03/01 04:17:52;;;;;;;34.53;18.47;;;-4.00;99.90;;;;;;4828486;29;20054;-82
2023/03/01 04:20:24;;;;;;;36.07;18.73;;;-4.10;99.90;;;;;;4807682;29;20042;-82
2023/03/01 04:23:10;;;;;;;32.93;17.93;;;-4.10;99.90;;;;;;4827837;29;20668;-82
2023/03/01 04:25:53;;;;;;;36.27;18.50;;;-3.60;99.90;;;;;;4806742;29;20110;-82
2023/03/01 04:28:33;;;;;;;36.33;19.13;;;-4.10;99.90;;;;;;4824074;29;20543;-82
2023/03/01 04:31:13;;;;;;;39.80;20.30;;;-4.10;99.90;;;;;;4812477;29;20054;-82
2023/03/01 04:33:40;;;;;;;36.97;18.97;;;-4.10;99.90;;;;;;4834478;29;20141;-81
2023/03/01 04:36:08;;;;;;;37.70;19.07;;;-4.20;99.90;;;;;;5116025;24;20042;-81
2023/03/01 04:38:37;;;;;;;36.33;19.13;;;-4.20;99.90;;;;;;4806227;29;20064;-82
2023/03/01 04:41:07;;;;;;;35.37;18.60;;;-4.20;99.90;;;;;;4829272;29;20046;-82
2023/03/01 04:43:34;;;;;;;35.50;18.77;;;-4.20;99.90;;;;;;4821292;29;20441;-82
2023/03/01 04:46:12;;;;;;;36.37;18.90;;;-3.10;99.90;;;;;;4810748;29;20061;-82
2023/03/01 04:48:45;;;;;;;34.73;18.43;;;-4.30;99.90;;;;;;4807277;29;20125;-82
2023/03/01 04:51:13;;;;;;;37.40;20.07;;;-4.30;99.90;;;;;;4837298;29;20026;-82
2023/03/01 04:53:39;;;;;;;35.50;18.97;;;-4.30;99.90;;;;;;4833235;29;20046;-82
2023/03/01 04:56:06;;;;;;;36.43;19.20;;;-4.30;99.90;;;;;;4813776;29;20051;-82
2023/03/01 04:58:32;;;;;;;34.43;18.60;;;-4.30;99.90;;;;;;4823092;29;20039;-82
2023/03/01 05:00:58;;;;;;;37.07;20.13;;;-3.30;99.90;;;;;;4818667;29;20049;-82
2023/03/01 05:03:24;;;;;;;37.07;19.37;;;-4.30;99.90;;;;;;4836306;29;20053;-82
2023/03/01 05:05:51;;;;;;;37.60;20.07;;;-4.40;99.90;;;;;;4805439;29;20043;-82
2023/03/01 05:08:17;;;;;;;38.50;19.50;;;-4.40;99.90;;;;;;4806433;29;20050;-82
2023/03/01 05:10:52;;;;;;;35.73;19.40;;;-4.50;99.90;;;;;;4826769;29;20498;-82
2023/03/01 05:13:22;;;;;;;41.47;21.40;;;-4.40;99.90;;;;;;4850680;29;20083;-82
2023/03/01 05:15:59;;;;;;;38.83;20.77;;;-4.40;99.90;;;;;;4813298;29;20096;-82
2023/03/01 05:18:27;;;;;;;41.23;21.50;;;-4.30;99.90;;;;;;4822739;29;20058;-82
2023/03/01 05:20:55;;;;;;;40.03;21.10;;;-4.40;99.90;;;;;;4822498;29;20456;-82
2023/03/01 05:23:22;;;;;;;39.00;20.30;;;-4.30;99.90;;;;;;4843910;29;20042;-82
2023/03/01 05:25:48;;;;;;;42.70;21.63;;;-4.30;99.90;;;;;;4807011;29;20046;-82
2023/03/01 05:28:15;;;;;;;45.37;27.70;;;-4.30;99.90;;;;;;4811249;29;20495;-82
2023/03/01 05:30:43;;;;;;;43.27;25.97;;;-4.30;99.90;;;;;;4806683;29;20050;-82
2023/03/01 05:33:15;;;;;;;42.20;23.83;;;-4.40;99.90;;;;;;4827488;29;20046;-82
2023/03/01 05:35:45;;;;;;;39.50;22.13;;;-4.40;99.90;;;;;;4815531;29;20046;-83
2023/03/01 05:38:14;;;;;;;43.43;21.90;;;-4.40;99.90;;;;;;4830207;29;20051;-82
2023/03/01 05:40:41;;;;;;;39.83;21.33;;;-4.50;99.90;;;;;;4807371;29;20081;-81
2023/03/01 05:43:07;;;;;;;42.00;22.87;;;-4.50;99.90;;;;;;4842880;29;20095;-83
2023/03/01 05:45:38;;;;;;;39.67;21.77;;;-4.50;99.90;;;;;;4806648;29;20058;-82
2023/03/01 05:48:05;;;;;;;40.47;21.43;;;-4.50;99.90;;;;;;4810315;29;20046;-82
2023/03/01 05:50:36;;;;;;;43.23;23.57;;;-4.50;99.90;;;;;;4807001;29;20047;-82
2023/03/01 05:53:05;;;;;;;38.93;22.43;;;-4.50;99.90;;;;;;4846283;29;20077;-82
2023/03/01 05:55:32;;;;;;;42.87;22.60;;;-4.60;99.90;;;;;;4824912;29;20117;-82
2023/03/01 05:58:03;;;;;;;41.40;22.30;;;-4.60;99.90;;;;;;4831038;29;20038;-82
2023/03/01 06:00:29;;;;;;;41.53;21.50;;;-4.60;99.90;;;;;;4825915;29;20093;-83
2023/03/01 06:02:57;;;;;;;43.67;22.93;;;-4.70;99.90;;;;;;4828817;29;20046;-82
2023/03/01 06:05:23;;;;;;;42.80;22.40;;;-4.60;99.90;;;;;;4826031;29;20085;-83
2023/03/01 06:07:50;;;;;;;40.17;20.93;;;-4.60;99.90;;;;;;4814247;29;20075;-82
2023/03/01 06:10:16;;;;;;;42.97;22.33;;;-4.70;99.90;;;;;;4821392;29;20104;-82
2023/03/01 06:12:43;;;;;;;41.03;21.30;;;-4.70;99.90;;;;;;4831082;29;20045;-82
2023/03/01 06:15:11;;;;;;;40.07;21.47;;;-4.10;99.90;;;;;;4825682;29;20034;-83
2023/03/01 06:17:38;;;;;;;42.33;21.53;;;-4.70;99.90;;;;;;4817421;29;20056;-83
2023/03/01 06:20:06;;;;;;;40.13;21.13;;;-4.70;99.90;;;;;;4825712;29;20050;-83
2023/03/01 06:22:32;;;;;;;45.87;22.27;;;-4.70;99.90;;;;;;4826771;29;20045;-83
2023/03/01 06:25:00;;;;;;;44.53;23.17;;;-4.70;99.90;;;;;;4826791;29;20057;-82
2023/03/01 06:27:25;;;;;;;45.27;22.63;;;-4.70;99.90;;;;;;4829790;29;20047;-83
2023/03/01 06:29:51;;;;;;;40.23;21.83;;;-4.70;99.90;;;;;;4809556;29;20555;-83
2023/03/01 06:32:16;;;;;;;40.27;21.87;;;-4.80;99.90;;;;;;4837542;29;20089;-83
2023/03/01 06:34:42;;;;;;;42.97;23.27;;;-4.70;99.90;;;;;;4815330;29;20411;-82
2023/03/01 07:29:03;;;;;;;49.73;26.43;;;-3.80;99.90;;;;;;5107930;24;20448;-88
2023/03/01 07:31:52;;;;;;;50.38;27.15;;;-3.60;99.90;;;;;;4825443;29;20053;-90
2023/03/01 07:50:30;;;;;;;57.63;31.53;;;-3.00;99.90;;;;;;5188853;23;20030;-90
2023/03/01 07:57:16;;;;;;;60.30;32.80;;;-2.90;99.90;;;;;;4846941;29;20046;-94
2023/03/01 08:00:39;;;;;;;58.40;32.25;;;-3.20;99.90;;;;;;5125749;24;20049;-96
2023/03/01 08:04:14;;;;;;;57.37;33.07;;;-2.80;99.90;;;;;;4819161;29;20054;-96
2023/03/01 08:07:30;;;;;;;60.47;33.27;;;-1.10;99.90;;;;;;4854500;23;20058;-95
2023/03/01 08:13:22;;;;;;;;;;;;;;;;;;;;;
2023/03/01 08:20:08;;;;;;;;;;;;;;;;;;;;;
2023/03/01 08:23:13;;;;;;;43.17;26.03;;;-1.50;99.90;;;;;;4826281;29;20058;-95
2023/03/01 08:29:15;;;;;;;;;;;;;;;;;;;;;
2023/03/01 08:32:47;;;;;;;32.57;21.23;;;-1.50;99.90;;;;;;4822991;29;20065;-95
2023/03/01 08:38:14;;;;;;;32.67;19.27;;;-0.80;99.90;;;;;;5329071;24;20030;-94
2023/03/01 08:40:43;;;;;;;;;;;-1.00;99.90;;;;;;4840121;29;20053;-95
2023/03/01 10:16:14;;;;;;;13.00;5.83;;;4.40;99.90;;;;;;5716072;23;20146;-91
2023/03/01 10:22:11;;;;;;;10.50;4.37;;;3.80;99.90;;;;;;4842670;29;20042;-91
2023/03/01 10:24:46;;;;;;;10.50;3.90;;;4.00;99.90;;;;;;4828509;24;20562;-90
2023/03/01 10:28:12;;;;;;;9.77;3.67;;;5.50;99.90;;;;;;4834401;29;20469;-91
2023/03/01 10:31:00;;;;;;;10.30;3.97;;;4.30;99.90;;;;;;4833495;29;20460;-89
2023/03/01 10:36:33;;;;;;;11.83;4.30;;;6.20;99.90;;;;;;4819341;29;20156;-90
2023/03/01 11:28:51;;;;;;;10.30;4.93;;;7.30;99.90;;;;;;5043332;23;20058;-92
2023/03/01 11:31:36;;;;;;;13.30;5.40;;;7.30;99.90;;;;;;4858389;29;20034;-93
2023/03/01 11:38:06;;;;;;;12.00;5.03;;;7.20;99.90;;;;;;4940288;23;20483;-93
2023/03/01 11:48:02;;;;;;;;;;;;;;;;;;;;;
2023/03/01 11:50:54;;;;;;;11.88;5.38;;;8.00;99.90;;;;;;4822595;29;20461;-90
2023/03/01 11:57:51;;;;;;;12.93;5.57;;;7.50;99.90;;;;;;4803595;30;20054;-94
2023/03/01 12:59:54;;;;;;;;;;;;;;;;;;;;;
2023/03/01 13:07:20;;;;;;;;;;;;;;;;;;;;;
2023/03/01 13:10:40;;;;;;;13.18;6.82;;;9.00;99.90;;;;;;4726710;30;20061;-96
2023/03/01 13:56:43;;;;;;;15.18;8.10;;;9.40;99.90;;;;;;4744175;23;20049;-93
2023/03/01 14:02:14;;;;;;;14.23;7.38;;;9.40;99.90;;;;;;4782325;29;20074;-95
2023/03/01 14:05:14;;;;;;;13.35;7.10;;;10.90;99.90;;;;;;4799547;29;20051;-93
2023/03/01 14:11:08;;;;;;;15.15;8.30;;;9.50;99.90;;;;;;4827393;29;20054;-92
2023/03/01 14:14:17;;;;;;;16.73;8.52;;;9.40;99.90;;;;;;4826906;29;20554;-91
2023/03/01 14:17:04;;;;;;;16.50;8.93;;;9.50;99.90;;;;;;4845057;29;20068;-89
2023/03/01 14:19:44;;;;;;;16.92;8.82;;;10.20;99.90;;;;;;4848421;29;20053;-95
2023/03/01 14:28:55;;;;;;;15.85;9.35;;;9.40;99.90;;;;;;4848780;24;20129;-92
2023/03/01 14:31:49;;;;;;;17.33;10.15;;;10.40;99.90;;;;;;4854387;29;20641;-94
2023/03/01 14:40:43;;;;;;;15.05;8.80;;;9.20;99.90;;;;;;5454051;23;20069;-89
2023/03/01 14:52:55;;;;;;;17.13;9.18;;;9.10;99.90;;;;;;5082510;24;19932;-90
2023/03/01 14:55:48;;;;;;;16.42;8.93;;;10.40;99.90;;;;;;4819364;23;20492;-91
2023/03/01 15:12:27;;;;;;;15.43;8.25;;;9.70;99.90;;;;;;4866019;23;20372;-89
2023/03/01 15:14:54;;;;;;;16.02;8.50;;;9.70;99.90;;;;;;4857255;23;20060;-89
2023/03/01 15:18:13;;;;;;;;;;;;;;;;;;;;;
2023/03/01 15:20:51;;;;;;;15.18;7.93;;;9.50;99.90;;;;;;4846210;24;20058;-88
2023/03/01 15:30:29;;;;;;;14.63;8.40;;;10.10;99.90;;;;;;4825304;24;20053;-89
2023/03/01 15:36:31;;;;;;;14.48;8.68;;;10.50;99.90;;;;;;4809321;24;20146;-89
2023/03/01 15:42:40;;;;;;;14.65;8.60;;;10.00;99.90;;;;;;4847724;24;20050;-91
2023/03/01 15:45:58;;;;;;;17.15;9.55;;;11.70;99.90;;;;;;4803944;29;20073;-96
2023/03/01 15:48:52;;;;;;;13.75;8.23;;;10.40;99.90;;;;;;4807131;24;20514;-93
2023/03/01 15:51:39;;;;;;;14.45;8.90;;;10.10;99.90;;;;;;4821769;29;20406;-92
2023/03/01 15:54:40;;;;;;;15.40;9.05;;;11.30;99.90;;;;;;4825858;29;20441;-90
2023/03/01 15:57:15;;;;;;;15.88;9.40;;;9.40;99.90;;;;;;4822676;29;21478;-92
2023/03/01 15:59:52;;;;;;;14.90;8.90;;;10.10;99.90;;;;;;4817489;29;20061;-91
2023/03/01 16:05:34;;;;;;;14.77;8.95;;;9.20;99.90;;;;;;4828172;24;20197;-89
2023/03/01 16:19:04;;;;;;;17.95;8.98;;;7.40;99.90;;;;;;4824768;29;20054;-91
2023/03/01 16:24:57;;;;;;;15.73;9.13;;;7.00;99.90;;;;;;4832513;23;20058;-89
2023/03/01 16:27:23;;;;;;;15.33;8.67;;;6.90;99.90;;;;;;4859764;29;20058;-90
2023/03/01 16:35:43;;;;;;;16.40;9.77;;;6.50;99.90;;;;;;4975435;23;20049;-94
2023/03/01 16:38:48;;;;;;;16.43;8.60;;;7.70;99.90;;;;;;4827563;29;20049;-93
2023/03/01 16:41:29;;;;;;;15.30;8.77;;;6.90;99.90;;;;;;4839040;24;20072;-93
2023/03/01 16:44:10;;;;;;;16.40;9.33;;;6.20;99.90;;;;;;4860187;29;20057;-92
2023/03/01 16:46:48;;;;;;;15.67;9.37;;;5.70;99.90;;;;;;4843058;24;20085;-91
2023/03/01 16:49:22;;;;;;;17.40;8.97;;;6.00;99.90;;;;;;4805378;29;20057;-91
2023/03/01 16:52:20;;;;;;;18.83;10.30;;;5.60;99.90;;;;;;4996902;24;20067;-90
2023/03/01 17:08:01;;;;;;;18.53;10.00;;;5.30;99.90;;;;;;5072164;23;20099;-91
2023/03/01 17:10:27;;;;;;;20.27;10.90;;;5.40;99.90;;;;;;4825513;29;20049;-91
2023/03/01 17:12:53;;;;;;;23.83;12.77;;;5.10;99.90;;;;;;4844426;29;20080;-90
2023/03/01 17:15:18;;;;;;;21.53;11.03;;;5.00;99.90;;;;;;4844112;29;20053;-90
2023/03/01 17:17:50;;;;;;;28.10;13.23;;;4.70;99.90;;;;;;4859367;29;20085;-92
2023/03/01 17:20:16;;;;;;;22.93;11.73;;;6.40;99.90;;;;;;4847040;29;20049;-91
2023/03/01 17:22:55;;;;;;;23.57;11.60;;;6.20;99.90;;;;;;4873005;29;20132;-90
2023/03/01 17:25:21;;;;;;;28.70;13.97;;;4.10;99.90;;;;;;4868674;29;20061;-90
2023/03/01 17:27:50;;;;;;;28.67;13.73;;;6.10;99.90;;;;;;4881655;29;20053;-90
2023/03/01 17:30:16;;;;;;;27.67;14.50;;;4.30;99.90;;;;;;4883967;29;20049;-90
2023/03/01 17:33:00;;;;;;;27.67;14.37;;;4.50;99.90;;;;;;4870074;29;20041;-89
2023/03/01 17:35:46;;;;;;;27.37;14.30;;;4.80;99.90;;;;;;4843531;29;20208;-89
2023/03/01 17:38:26;;;;;;;26.03;13.63;;;3.70;99.90;;;;;;4842928;29;20049;-85
2023/03/01 17:41:27;;;;;;;25.13;13.63;;;4.90;99.90;;;;;;4843897;29;20148;-85
2023/03/01 17:43:56;;;;;;;26.87;14.90;;;4.10;99.90;;;;;;4843524;29;20057;-85
2023/03/01 17:46:25;;;;;;;29.07;15.87;;;4.80;99.90;;;;;;4859761;29;20044;-85
2023/03/01 17:48:54;;;;;;;26.47;14.60;;;3.90;99.90;;;;;;4863614;29;20124;-84
2023/03/01 17:55:00;;;;;;;27.63;14.73;;;4.60;99.90;;;;;;4859320;23;20056;-84
2023/03/01 17:57:44;;;;;;;28.10;15.67;;;4.90;99.90;;;;;;4827831;29;20136;-84
2023/03/01 18:00:22;;;;;;;31.90;18.85;;;3.50;99.90;;;;;;4844243;29;20144;-84
2023/03/01 18:02:48;;;;;;;29.40;16.60;;;3.70;99.90;;;;;;4828736;29;20054;-84
2023/03/01 18:05:34;;;;;;;28.83;15.40;;;4.50;99.90;;;;;;4844387;29;20052;-84
2023/03/01 18:08:03;;;;;;;23.73;14.60;;;3.30;99.90;;;;;;4844305;29;20058;-84
2023/03/01 18:16:42;;;;;;;25.10;14.30;;;3.40;99.90;;;;;;4855222;24;20133;-83
2023/03/01 18:19:34;;;;;;;25.87;15.03;;;3.40;99.90;;;;;;4842885;29;20060;-88
2023/03/01 18:22:09;;;;;;;26.40;15.07;;;3.30;99.90;;;;;;4842952;29;20089;-87
2023/03/01 18:24:36;;;;;;;27.90;14.87;;;2.90;99.90;;;;;;4826643;29;20094;-87
2023/03/01 18:34:27;;;;;;;29.67;17.40;;;2.60;99.90;;;;;;4834783;29;20050;-88
2023/03/01 18:37:08;;;;;;;66.80;30.77;;;3.10;99.90;;;;;;5017856;23;20012;-88
2023/03/01 18:39:34;;;;;;;37.00;20.20;;;4.10;99.90;;;;;;4806110;29;20086;-88
2023/03/01 18:42:00;;;;;;;44.70;24.27;;;4.20;99.90;;;;;;4807136;29;20094;-84
2023/03/01 18:44:28;;;;;;;40.50;22.93;;;2.70;99.90;;;;;;4791975;29;20061;-82
2023/03/01 18:47:26;;;;;;;39.23;20.57;;;4.80;99.90;;;;;;4792771;29;20072;-82
2023/03/01 18:50:22;;;;;;;39.00;21.30;;;2.60;99.90;;;;;;4776893;30;20500;-82
2023/03/01 18:53:23;;;;;;;32.70;19.53;;;2.60;99.90;;;;;;4787461;29;20059;-82
2023/03/01 18:56:01;;;;;;;32.00;18.75;;;2.70;99.90;;;;;;4762538;30;20454;-82
2023/03/01 18:58:42;;;;;;;31.73;19.53;;;1.80;99.90;;;;;;4777097;29;20167;-82
2023/03/01 19:01:28;;;;;;;32.83;19.43;;;4.10;99.90;;;;;;4791288;29;20125;-81
2023/03/01 19:03:55;;;;;;;34.33;20.97;;;2.50;99.90;;;;;;4790651;29;20141;-82
2023/03/01 19:06:22;;;;;;;34.33;20.30;;;4.50;99.90;;;;;;4806934;29;20187;-82
2023/03/01 19:08:55;;;;;;;38.83;21.07;;;4.60;99.90;;;;;;4806548;29;20512;-82
2023/03/01 19:11:25;;;;;;;37.20;22.17;;;2.90;99.90;;;;;;4798943;29;20062;-83
2023/03/01 19:13:52;;;;;;;39.00;21.93;;;3.10;99.90;;;;;;4800813;29;20399;-82
2023/03/01 19:16:40;;;;;;;38.17;21.07;;;2.60;99.90;;;;;;4801059;29;20458;-82
2023/03/01 19:19:08;;;;;;;39.47;21.07;;;2.70;99.90;;;;;;4816825;29;20074;-82
2023/03/01 19:21:39;;;;;;;39.43;22.53;;;3.70;99.90;;;;;;4815630;29;20495;-82
2023/03/01 19:24:08;;;;;;;37.63;21.07;;;2.70;99.90;;;;;;4815576;29;20479;-82
2023/03/01 19:26:34;;;;;;;38.17;21.33;;;3.40;99.90;;;;;;4812432;29;20104;-83
2023/03/01 19:29:00;;;;;;;41.00;23.33;;;2.50;99.90;;;;;;4799084;29;20046;-83
2023/03/01 19:31:53;;;;;;;38.13;22.13;;;3.90;99.90;;;;;;4796613;29;20560;-83
2023/03/01 19:34:21;;;;;;;39.67;24.07;;;2.40;99.90;;;;;;4796780;29;20139;-82
2023/03/01 19:36:50;;;;;;;41.80;23.87;;;2.00;99.90;;;;;;4814367;29;20042;-83
2023/03/01 19:39:16;;;;;;;42.77;23.60;;;3.40;99.90;;;;;;4812215;29;20078;-83
2023/03/01 19:41:42;;;;;;;46.13;25.50;;;2.60;99.90;;;;;;4798846;29;20420;-82
2023/03/01 19:44:16;;;;;;;41.23;25.20;;;2.40;99.90;;;;;;4816214;29;20054;-82
2023/03/01 19:46:42;;;;;;;41.73;23.23;;;2.50;99.90;;;;;;4814874;29;20586;-82
2023/03/01 19:49:08;;;;;;;39.53;23.37;;;2.00;99.90;;;;;;4797924;29;20078;-82
2023/03/01 19:51:37;;;;;;;40.43;22.33;;;2.60;99.90;;;;;;4799016;29;20046;-81
2023/03/01 19:54:04;;;;;;;41.27;22.50;;;2.50;99.90;;;;;;4798106;29;20109;-82
2023/03/01 19:59:22;;;;;;;56.73;37.07;;;2.10;99.90;;;;;;4822100;29;20046;-81
2023/03/01 20:01:49;;;;;;;40.53;23.50;;;1.80;99.90;;;;;;4807218;29;20046;-82
2023/03/01 20:08:16;;;;;;;46.47;26.57;;;3.00;99.90;;;;;;5234339;24;20526;-81
2023/03/01 20:11:47;;;;;;;41.00;23.00;;;2.90;99.90;;;;;;4832785;29;20070;-81
2023/03/01 20:14:13;;;;;;;42.83;23.90;;;2.50;99.90;;;;;;4833847;29;20088;-81
2023/03/01 20:16:48;;;;;;;41.17;22.43;;;3.70;99.90;;;;;;4824472;29;20042;-83
2023/03/01 20:19:32;;;;;;;44.20;23.57;;;2.80;99.90;;;;;;4819480;29;20380;-82
2023/03/01 20:22:13;;;;;;;41.70;22.13;;;0.90;99.90;;;;;;4837509;29;20058;-82
2023/03/01 20:24:40;;;;;;;46.07;24.60;;;1.40;99.90;;;;;;4841556;29;20046;-81
2023/03/01 20:27:20;;;;;;;49.17;24.60;;;0.80;99.90;;;;;;4825689;29;20082;-82
2023/03/01 20:29:46;;;;;;;45.13;24.17;;;1.70;99.90;;;;;;4833631;29;20110;-82
2023/03/01 20:32:16;;;;;;;50.00;25.40;;;2.10;99.90;;;;;;4817861;29;20121;-82
2023/03/01 20:34:41;;;;;;;50.23;25.83;;;2.10;99.90;;;;;;4910489;24;20114;-82
2023/03/01 20:37:21;;;;;;;50.40;26.30;;;2.70;99.90;;;;;;4823804;29;20049;-82
2023/03/01 20:39:59;;;;;;;47.13;25.30;;;1.60;99.90;;;;;;4806979;29;20464;-82
2023/03/01 20:42:56;;;;;;;47.83;24.60;;;1.60;99.90;;;;;;4822460;29;20484;-82
2023/03/01 20:45:22;;;;;;;47.33;22.53;;;1.20;99.90;;;;;;4807172;29;20050;-82
2023/03/01 20:47:48;;;;;;;49.80;25.20;;;1.80;99.90;;;;;;4807387;29;20443;-82
2023/03/01 20:50:18;;;;;;;45.27;23.37;;;1.60;99.90;;;;;;4822486;29;20091;-82
2023/03/01 20:56:46;;;;;;;48.33;23.63;;;2.10;99.90;;;;;;4804577;29;20091;-82
2023/03/01 20:59:22;;;;;;;49.00;23.10;;;1.10;99.90;;;;;;4789319;29;20141;-83
2023/03/01 21:01:48;;;;;;;48.07;24.30;;;2.50;99.90;;;;;;4789311;29;20089;-82
2023/03/01 21:04:17;;;;;;;47.77;23.50;;;2.80;99.90;;;;;;4788591;29;20133;-82
2023/03/01 21:06:48;;;;;;;48.07;23.90;;;3.20;99.90;;;;;;4805483;29;20141;-82
2023/03/01 21:09:23;;;;;;;49.23;23.40;;;3.30;99.90;;;;;;4804823;29;20455;-83
2023/03/01 21:11:58;;;;;;;48.27;23.97;;;2.90;99.90;;;;;;4789508;29;20055;-83
2023/03/01 21:14:27;;;;;;;47.00;21.23;;;2.90;99.90;;;;;;4789049;29;20492;-82
2023/03/01 21:16:53;;;;;;;51.00;24.10;;;2.20;99.90;;;;;;4816545;29;20062;-82
2023/03/01 21:19:24;;;;;;;48.37;23.40;;;3.40;99.90;;;;;;4823554;29;20056;-82
2023/03/01 21:22:33;;;;;;;48.57;21.93;;;2.50;99.90;;;;;;4826056;29;20054;-82